sensor_id;sensor_type;location;lat;lon;timestamp;P1;durP1;ratioP1;P2;durP2;ratioP2
38379;SDS011;38377;47.418;18.882;2023-03-01T00:01:09;15.53;;;9.37;;
38379;SDS011;38377;47.418;18.882;2023-03-01T00:03:37;13.23;;;8.63;;
38379;SDS011;38377;47.418;18.882;2023-03-01T00:06:03;12.33;;;8.77;;
38379;SDS011;38377;47.418;18.882;2023-03-01T00:08:30;12.60;;;8.17;;
38379;SDS011;38377;47.418;18.882;2023-03-01T00:13:29;12.60;;;8.17;;
38379;SDS011;38377;47.418;18.882;2023-03-01T00:15:55;13.73;;;8.57;;
38379;SDS011;38377;47.418;18.882;2023-03-01T00:18:21;13.77;;;8.47;;
38379;SDS011;38377;47.418;18.882;2023-03-01T00:20:54;12.23;;;8.23;;
38379;SDS011;38377;47.418;18.882;2023-03-01T00:23:20;11.97;;;8.60;;
38379;SDS011;38377;47.418;18.882;2023-03-01T00:25:47;14.13;;;8.90;;
38379;SDS011;38377;47.418;18.882;2023-03-01T00:28:13;12.07;;;8.33;;
38379;SDS011;38377;47.418;18.882;2023-03-01T00:30:39;12.30;;;8.43;;
38379;SDS011;38377;47.418;18.882;2023-03-01T00:33:05;10.77;;;7.90;;
38379;SDS011;38377;47.418;18.882;2023-03-01T00:35:34;11.87;;;7.47;;
38379;SDS011;38377;47.418;18.882;2023-03-01T00:38:00;11.30;;;8.07;;
38379;SDS011;38377;47.418;18.882;2023-03-01T00:40:27;13.93;;;8.70;;
38379;SDS011;38377;47.418;18.882;2023-03-01T00:42:54;15.03;;;8.07;;
38379;SDS011;38377;47.418;18.882;2023-03-01T00:45:19;12.17;;;7.70;;
38379;SDS011;38377;47.418;18.882;2023-03-01T00:47:45;12.43;;;8.27;;
38379;SDS011;38377;47.418;18.882;2023-03-01T00:50:12;16.00;;;8.87;;
38379;SDS011;38377;47.418;18.882;2023-03-01T00:52:38;12.57;;;8.43;;
38379;SDS011;38377;47.418;18.882;2023-03-01T00:55:04;14.47;;;8.07;;
38379;SDS011;38377;47.418;18.882;2023-03-01T00:57:31;12.80;;;8.43;;
38379;SDS011;38377;47.418;18.882;2023-03-01T00:59:57;12.93;;;8.30;;
38379;SDS011;38377;47.418;18.882;2023-03-01T01:02:22;15.80;;;8.20;;
38379;SDS011;38377;47.418;18.882;2023-03-01T01:04:48;11.73;;;7.50;;
38379;SDS011;38377;47.418;18.882;2023-03-01T01:07:16;14.03;;;7.83;;
38379;SDS011;38377;47.418;18.882;2023-03-01T01:09:42;12.33;;;7.93;;
38379;SDS011;38377;47.418;18.882;2023-03-01T01:12:08;10.93;;;7.20;;
38379;SDS011;38377;47.418;18.882;2023-03-01T01:14:34;13.80;;;8.47;;
38379;SDS011;38377;47.418;18.882;2023-03-01T01:17:00;12.17;;;8.20;;
38379;SDS011;38377;47.418;18.882;2023-03-01T01:19:26;11.13;;;7.40;;
38379;SDS011;38377;47.418;18.882;2023-03-01T01:21:52;9.60;;;7.03;;
38379;SDS011;38377;47.418;18.882;2023-03-01T01:24:18;12.17;;;8.17;;
38379;SDS011;38377;47.418;18.882;2023-03-01T01:26:44;12.33;;;7.20;;
38379;SDS011;38377;47.418;18.882;2023-03-01T01:29:10;13.37;;;7.80;;
38379;SDS011;38377;47.418;18.882;2023-03-01T01:31:36;12.63;;;7.93;;
38379;SDS011;38377;47.418;18.882;2023-03-01T01:34:04;14.20;;;9.10;;
38379;SDS011;38377;47.418;18.882;2023-03-01T01:36:31;14.60;;;9.10;;
38379;SDS011;38377;47.418;18.882;2023-03-01T01:38:58;17.13;;;9.30;;
38379;SDS011;38377;47.418;18.882;2023-03-01T01:41:24;13.40;;;9.10;;
38379;SDS011;38377;47.418;18.882;2023-03-01T01:46:38;15.20;;;9.37;;
38379;SDS011;38377;47.418;18.882;2023-03-01T01:49:14;13.50;;;8.20;;
38379;SDS011;38377;47.418;18.882;2023-03-01T01:51:43;13.97;;;8.70;;
38379;SDS011;38377;47.418;18.882;2023-03-01T01:54:15;16.90;;;10.07;;
38379;SDS011;38377;47.418;18.882;2023-03-01T01:56:48;15.33;;;9.47;;
38379;SDS011;38377;47.418;18.882;2023-03-01T01:59:20;15.43;;;8.80;;
38379;SDS011;38377;47.418;18.882;2023-03-01T02:01:49;16.73;;;9.30;;
38379;SDS011;38377;47.418;18.882;2023-03-01T02:04:16;13.83;;;9.03;;
38379;SDS011;38377;47.418;18.882;2023-03-01T02:06:45;15.73;;;8.53;;
38379;SDS011;38377;47.418;18.882;2023-03-01T02:09:16;14.53;;;8.40;;
38379;SDS011;38377;47.418;18.882;2023-03-01T02:11:45;17.03;;;9.27;;
38379;SDS011;38377;47.418;18.882;2023-03-01T02:14:13;12.60;;;8.40;;
38379;SDS011;38377;47.418;18.882;2023-03-01T02:16:40;16.83;;;11.17;;
38379;SDS011;38377;47.418;18.882;2023-03-01T02:19:07;16.20;;;11.23;;
38379;SDS011;38377;47.418;18.882;2023-03-01T02:21:56;15.93;;;11.03;;
38379;SDS011;38377;47.418;18.882;2023-03-01T02:27:13;16.33;;;10.93;;
38379;SDS011;38377;47.418;18.882;2023-03-01T02:29:41;19.37;;;11.30;;
38379;SDS011;38377;47.418;18.882;2023-03-01T02:32:09;17.27;;;10.63;;
38379;SDS011;38377;47.418;18.882;2023-03-01T02:34:37;18.33;;;11.43;;
38379;SDS011;38377;47.418;18.882;2023-03-01T02:37:05;19.47;;;11.43;;
38379;SDS011;38377;47.418;18.882;2023-03-01T02:39:42;13.93;;;9.63;;
38379;SDS011;38377;47.418;18.882;2023-03-01T02:42:14;15.43;;;9.93;;
38379;SDS011;38377;47.418;18.882;2023-03-01T02:44:43;16.35;;;9.93;;
38379;SDS011;38377;47.418;18.882;2023-03-01T02:47:09;14.70;;;10.10;;
38379;SDS011;38377;47.418;18.882;2023-03-01T02:49:36;14.43;;;9.60;;
38379;SDS011;38377;47.418;18.882;2023-03-01T02:54:33;14.40;;;10.00;;
38379;SDS011;38377;47.418;18.882;2023-03-01T02:57:04;14.23;;;9.17;;
38379;SDS011;38377;47.418;18.882;2023-03-01T02:59:31;13.57;;;9.60;;
38379;SDS011;38377;47.418;18.882;2023-03-01T03:02:08;19.47;;;10.83;;
38379;SDS011;38377;47.418;18.882;2023-03-01T03:05:01;13.43;;;9.80;;
38379;SDS011;38377;47.418;18.882;2023-03-01T03:07:33;13.70;;;9.53;;
38379;SDS011;38377;47.418;18.882;2023-03-01T03:10:02;15.03;;;9.23;;
38379;SDS011;38377;47.418;18.882;2023-03-01T03:12:30;13.67;;;9.60;;
38379;SDS011;38377;47.418;18.882;2023-03-01T03:14:56;15.83;;;9.50;;
38379;SDS011;38377;47.418;18.882;2023-03-01T03:17:21;17.03;;;10.10;;
38379;SDS011;38377;47.418;18.882;2023-03-01T03:19:47;15.80;;;9.73;;
38379;SDS011;38377;47.418;18.882;2023-03-01T03:22:13;13.80;;;9.60;;
38379;SDS011;38377;47.418;18.882;2023-03-01T03:24:39;17.57;;;9.87;;
38379;SDS011;38377;47.418;18.882;2023-03-01T03:27:06;15.00;;;10.03;;
38379;SDS011;38377;47.418;18.882;2023-03-01T03:29:32;12.30;;;8.93;;
38379;SDS011;38377;47.418;18.882;2023-03-01T03:31:58;15.87;;;10.17;;
38379;SDS011;38377;47.418;18.882;2023-03-01T03:34:24;15.00;;;9.63;;
38379;SDS011;38377;47.418;18.882;2023-03-01T03:36:55;15.00;;;9.20;;
38379;SDS011;38377;47.418;18.882;2023-03-01T03:39:21;17.40;;;10.17;;
38379;SDS011;38377;47.418;18.882;2023-03-01T03:41:51;15.15;;;10.10;;
38379;SDS011;38377;47.418;18.882;2023-03-01T03:44:18;17.10;;;10.53;;
38379;SDS011;38377;47.418;18.882;2023-03-01T03:46:43;16.60;;;9.57;;
38379;SDS011;38377;47.418;18.882;2023-03-01T03:49:09;16.57;;;10.00;;
38379;SDS011;38377;47.418;18.882;2023-03-01T03:51:35;17.07;;;9.73;;
38379;SDS011;38377;47.418;18.882;2023-03-01T03:54:01;17.57;;;10.67;;
38379;SDS011;38377;47.418;18.882;2023-03-01T03:56:26;18.60;;;10.03;;
38379;SDS011;38377;47.418;18.882;2023-03-01T03:58:52;14.33;;;9.57;;
38379;SDS011;38377;47.418;18.882;2023-03-01T04:01:18;15.90;;;9.80;;
38379;SDS011;38377;47.418;18.882;2023-03-01T04:03:44;15.67;;;10.00;;
38379;SDS011;38377;47.418;18.882;2023-03-01T04:06:12;15.43;;;9.27;;
38379;SDS011;38377;47.418;18.882;2023-03-01T04:08:38;15.00;;;9.87;;
38379;SDS011;38377;47.418;18.882;2023-03-01T04:11:04;14.70;;;8.87;;
38379;SDS011;38377;47.418;18.882;2023-03-01T04:13:50;18.27;;;9.77;;
38379;SDS011;38377;47.418;18.882;2023-03-01T04:16:17;15.77;;;9.73;;
38379;SDS011;38377;47.418;18.882;2023-03-01T04:18:44;14.20;;;8.90;;
38379;SDS011;38377;47.418;18.882;2023-03-01T04:21:10;14.13;;;9.23;;
38379;SDS011;38377;47.418;18.882;2023-03-01T04:23:36;14.90;;;10.13;;
38379;SDS011;38377;47.418;18.882;2023-03-01T04:26:03;17.77;;;9.97;;
38379;SDS011;38377;47.418;18.882;2023-03-01T04:28:36;18.23;;;10.00;;
38379;SDS011;38377;47.418;18.882;2023-03-01T04:31:06;15.83;;;10.47;;
38379;SDS011;38377;47.418;18.882;2023-03-01T04:33:44;16.73;;;11.17;;
38379;SDS011;38377;47.418;18.882;2023-03-01T04:36:12;15.57;;;9.70;;
38379;SDS011;38377;47.418;18.882;2023-03-01T04:38:39;17.33;;;10.33;;
38379;SDS011;38377;47.418;18.882;2023-03-01T04:41:05;16.43;;;10.10;;
38379;SDS011;38377;47.418;18.882;2023-03-01T04:43:33;16.53;;;10.23;;
38379;SDS011;38377;47.418;18.882;2023-03-01T04:46:05;18.00;;;10.23;;
38379;SDS011;38377;47.418;18.882;2023-03-01T04:48:40;15.67;;;9.80;;
38379;SDS011;38377;47.418;18.882;2023-03-01T04:51:07;40.38;;;19.55;;
38379;SDS011;38377;47.418;18.882;2023-03-01T04:53:33;60.03;;;28.80;;
38379;SDS011;38377;47.418;18.882;2023-03-01T04:56:01;41.57;;;20.60;;
38379;SDS011;38377;47.418;18.882;2023-03-01T04:58:27;45.07;;;23.07;;
38379;SDS011;38377;47.418;18.882;2023-03-01T05:00:53;22.43;;;13.80;;
38379;SDS011;38377;47.418;18.882;2023-03-01T05:03:19;33.87;;;15.20;;
38379;SDS011;38377;47.418;18.882;2023-03-01T05:05:46;27.37;;;15.60;;
38379;SDS011;38377;47.418;18.882;2023-03-01T05:08:13;21.93;;;12.50;;
38379;SDS011;38377;47.418;18.882;2023-03-01T05:10:49;23.80;;;13.43;;
38379;SDS011;38377;47.418;18.882;2023-03-01T05:13:17;22.73;;;13.83;;
38379;SDS011;38377;47.418;18.882;2023-03-01T05:15:47;18.07;;;11.23;;
38379;SDS011;38377;47.418;18.882;2023-03-01T05:18:18;19.73;;;12.10;;
38379;SDS011;38377;47.418;18.882;2023-03-01T05:20:44;16.40;;;10.77;;
38379;SDS011;38377;47.418;18.882;2023-03-01T05:23:10;18.30;;;11.73;;
38379;SDS011;38377;47.418;18.882;2023-03-01T05:25:35;19.33;;;11.70;;
38379;SDS011;38377;47.418;18.882;2023-03-01T05:28:05;21.73;;;11.87;;
38379;SDS011;38377;47.418;18.882;2023-03-01T05:30:33;16.23;;;10.90;;
38379;SDS011;38377;47.418;18.882;2023-03-01T05:32:59;16.97;;;10.30;;
38379;SDS011;38377;47.418;18.882;2023-03-01T05:35:25;18.70;;;9.73;;
38379;SDS011;38377;47.418;18.882;2023-03-01T05:37:51;17.07;;;10.63;;
38379;SDS011;38377;47.418;18.882;2023-03-01T05:40:18;15.63;;;9.93;;
38379;SDS011;38377;47.418;18.882;2023-03-01T05:42:51;16.87;;;9.87;;
38379;SDS011;38377;47.418;18.882;2023-03-01T05:45:21;14.83;;;9.67;;
38379;SDS011;38377;47.418;18.882;2023-03-01T05:47:48;21.53;;;12.63;;
38379;SDS011;38377;47.418;18.882;2023-03-01T05:50:24;16.60;;;11.07;;
38379;SDS011;38377;47.418;18.882;2023-03-01T05:52:58;15.47;;;10.30;;
38379;SDS011;38377;47.418;18.882;2023-03-01T05:55:25;15.03;;;9.47;;
38379;SDS011;38377;47.418;18.882;2023-03-01T05:57:51;18.27;;;10.80;;
38379;SDS011;38377;47.418;18.882;2023-03-01T06:00:18;16.93;;;9.90;;
38379;SDS011;38377;47.418;18.882;2023-03-01T06:02:45;16.30;;;9.60;;
38379;SDS011;38377;47.418;18.882;2023-03-01T06:05:12;14.87;;;9.60;;
38379;SDS011;38377;47.418;18.882;2023-03-01T06:07:38;17.57;;;10.50;;
38379;SDS011;38377;47.418;18.882;2023-03-01T06:10:04;17.23;;;9.37;;
38379;SDS011;38377;47.418;18.882;2023-03-01T06:12:32;18.50;;;10.33;;
38379;SDS011;38377;47.418;18.882;2023-03-01T06:14:59;21.00;;;11.13;;
38379;SDS011;38377;47.418;18.882;2023-03-01T06:17:25;15.97;;;10.37;;
38379;SDS011;38377;47.418;18.882;2023-03-01T06:19:54;17.03;;;11.17;;
38379;SDS011;38377;47.418;18.882;2023-03-01T06:22:20;19.10;;;11.80;;
38379;SDS011;38377;47.418;18.882;2023-03-01T06:24:45;16.57;;;10.27;;
38379;SDS011;38377;47.418;18.882;2023-03-01T06:27:11;21.10;;;12.43;;
38379;SDS011;38377;47.418;18.882;2023-03-01T06:29:37;26.53;;;16.27;;
38379;SDS011;38377;47.418;18.882;2023-03-01T06:32:03;31.17;;;17.73;;
38379;SDS011;38377;47.418;18.882;2023-03-01T06:34:29;21.70;;;12.77;;
38379;SDS011;38377;47.418;18.882;2023-03-01T06:36:54;18.60;;;11.13;;
38379;SDS011;38377;47.418;18.882;2023-03-01T06:39:20;15.73;;;10.23;;
38379;SDS011;38377;47.418;18.882;2023-03-01T06:41:46;15.50;;;10.60;;
38379;SDS011;38377;47.418;18.882;2023-03-01T06:44:11;14.13;;;10.17;;
38379;SDS011;38377;47.418;18.882;2023-03-01T06:46:38;15.80;;;10.37;;
38379;SDS011;38377;47.418;18.882;2023-03-01T06:49:05;16.07;;;10.77;;
38379;SDS011;38377;47.418;18.882;2023-03-01T06:51:34;20.73;;;10.50;;
38379;SDS011;38377;47.418;18.882;2023-03-01T06:54:03;14.63;;;9.50;;
38379;SDS011;38377;47.418;18.882;2023-03-01T06:56:30;16.80;;;10.83;;
38379;SDS011;38377;47.418;18.882;2023-03-01T06:58:56;13.63;;;9.30;;
38379;SDS011;38377;47.418;18.882;2023-03-01T07:01:22;16.97;;;9.87;;
38379;SDS011;38377;47.418;18.882;2023-03-01T07:03:47;17.40;;;11.17;;
38379;SDS011;38377;47.418;18.882;2023-03-01T07:06:13;16.50;;;9.87;;
38379;SDS011;38377;47.418;18.882;2023-03-01T07:08:39;17.20;;;12.20;;
38379;SDS011;38377;47.418;18.882;2023-03-01T07:11:04;16.60;;;11.60;;
38379;SDS011;38377;47.418;18.882;2023-03-01T07:13:31;15.83;;;9.87;;
38379;SDS011;38377;47.418;18.882;2023-03-01T07:15:57;18.60;;;10.83;;
38379;SDS011;38377;47.418;18.882;2023-03-01T07:18:22;17.43;;;10.80;;
38379;SDS011;38377;47.418;18.882;2023-03-01T07:20:48;17.43;;;10.00;;
38379;SDS011;38377;47.418;18.882;2023-03-01T07:23:14;18.10;;;10.97;;
38379;SDS011;38377;47.418;18.882;2023-03-01T07:25:40;17.53;;;10.63;;
38379;SDS011;38377;47.418;18.882;2023-03-01T07:28:06;13.53;;;9.37;;
38379;SDS011;38377;47.418;18.882;2023-03-01T07:30:32;15.77;;;10.27;;
38379;SDS011;38377;47.418;18.882;2023-03-01T07:32:58;16.60;;;10.80;;
38379;SDS011;38377;47.418;18.882;2023-03-01T07:35:25;15.33;;;9.30;;
38379;SDS011;38377;47.418;18.882;2023-03-01T07:37:51;16.00;;;10.57;;
38379;SDS011;38377;47.418;18.882;2023-03-01T07:40:17;15.37;;;9.93;;
38379;SDS011;38377;47.418;18.882;2023-03-01T07:42:43;15.30;;;9.77;;
38379;SDS011;38377;47.418;18.882;2023-03-01T07:45:09;18.47;;;10.40;;
38379;SDS011;38377;47.418;18.882;2023-03-01T07:47:36;15.20;;;10.40;;
38379;SDS011;38377;47.418;18.882;2023-03-01T07:50:02;15.20;;;10.80;;
38379;SDS011;38377;47.418;18.882;2023-03-01T07:52:28;20.13;;;11.30;;
38379;SDS011;38377;47.418;18.882;2023-03-01T07:54:55;18.50;;;10.63;;
38379;SDS011;38377;47.418;18.882;2023-03-01T07:57:21;16.93;;;10.67;;
38379;SDS011;38377;47.418;18.882;2023-03-01T07:59:47;13.30;;;10.27;;
38379;SDS011;38377;47.418;18.882;2023-03-01T08:02:13;15.63;;;10.87;;
38379;SDS011;38377;47.418;18.882;2023-03-01T08:04:40;17.07;;;10.73;;
38379;SDS011;38377;47.418;18.882;2023-03-01T08:07:06;16.30;;;10.67;;
38379;SDS011;38377;47.418;18.882;2023-03-01T08:09:33;15.93;;;10.60;;
38379;SDS011;38377;47.418;18.882;2023-03-01T08:12:01;15.88;;;9.60;;
38379;SDS011;38377;47.418;18.882;2023-03-01T08:14:28;16.07;;;9.87;;
38379;SDS011;38377;47.418;18.882;2023-03-01T08:16:53;18.57;;;9.83;;
38379;SDS011;38377;47.418;18.882;2023-03-01T08:19:20;13.33;;;10.10;;
38379;SDS011;38377;47.418;18.882;2023-03-01T08:21:45;19.00;;;9.97;;
38379;SDS011;38377;47.418;18.882;2023-03-01T08:24:11;16.30;;;10.48;;
38379;SDS011;38377;47.418;18.882;2023-03-01T08:26:37;16.13;;;9.85;;
38379;SDS011;38377;47.418;18.882;2023-03-01T08:29:03;16.00;;;10.40;;
38379;SDS011;38377;47.418;18.882;2023-03-01T08:31:30;16.03;;;9.87;;
38379;SDS011;38377;47.418;18.882;2023-03-01T08:34:00;16.15;;;10.05;;
38379;SDS011;38377;47.418;18.882;2023-03-01T08:36:31;14.85;;;9.45;;
38379;SDS011;38377;47.418;18.882;2023-03-01T08:38:59;13.90;;;9.47;;
38379;SDS011;38377;47.418;18.882;2023-03-01T08:41:26;15.30;;;9.17;;
38379;SDS011;38377;47.418;18.882;2023-03-01T08:43:52;12.87;;;9.63;;
38379;SDS011;38377;47.418;18.882;2023-03-01T08:48:59;15.30;;;9.80;;
38379;SDS011;38377;47.418;18.882;2023-03-01T08:51:25;16.15;;;10.00;;
38379;SDS011;38377;47.418;18.882;2023-03-01T08:53:51;16.90;;;10.93;;
38379;SDS011;38377;47.418;18.882;2023-03-01T08:56:17;18.42;;;10.32;;
38379;SDS011;38377;47.418;18.882;2023-03-01T08:58:45;14.18;;;9.32;;
38379;SDS011;38377;47.418;18.882;2023-03-01T09:01:13;18.58;;;9.60;;
38379;SDS011;38377;47.418;18.882;2023-03-01T09:03:41;15.10;;;9.75;;
38379;SDS011;38377;47.418;18.882;2023-03-01T09:06:08;15.00;;;8.73;;
38379;SDS011;38377;47.418;18.882;2023-03-01T09:08:35;14.18;;;9.48;;
38379;SDS011;38377;47.418;18.882;2023-03-01T09:11:03;18.85;;;9.73;;
38379;SDS011;38377;47.418;18.882;2023-03-01T09:13:30;15.90;;;10.15;;
38379;SDS011;38377;47.418;18.882;2023-03-01T09:15:56;16.25;;;10.32;;
38379;SDS011;38377;47.418;18.882;2023-03-01T09:18:23;12.95;;;9.20;;
38379;SDS011;38377;47.418;18.882;2023-03-01T09:20:48;16.42;;;10.75;;
38379;SDS011;38377;47.418;18.882;2023-03-01T09:23:14;19.25;;;8.38;;
38379;SDS011;38377;47.418;18.882;2023-03-01T09:25:40;14.95;;;8.43;;
38379;SDS011;38377;47.418;18.882;2023-03-01T09:28:05;11.40;;;9.10;;
38379;SDS011;38377;47.418;18.882;2023-03-01T09:30:31;11.10;;;7.63;;
38379;SDS011;38377;47.418;18.882;2023-03-01T09:32:57;13.13;;;7.90;;
38379;SDS011;38377;47.418;18.882;2023-03-01T09:35:23;15.10;;;9.93;;
38379;SDS011;38377;47.418;18.882;2023-03-01T09:37:49;12.73;;;9.15;;
38379;SDS011;38377;47.418;18.882;2023-03-01T09:40:21;15.35;;;9.18;;
38379;SDS011;38377;47.418;18.882;2023-03-01T09:42:53;17.45;;;10.65;;
38379;SDS011;38377;47.418;18.882;2023-03-01T09:45:35;15.90;;;9.10;;
38379;SDS011;38377;47.418;18.882;2023-03-01T09:48:06;12.63;;;8.30;;
38379;SDS011;38377;47.418;18.882;2023-03-01T09:50:41;12.60;;;9.15;;
38379;SDS011;38377;47.418;18.882;2023-03-01T09:55:44;12.75;;;9.18;;
38379;SDS011;38377;47.418;18.882;2023-03-01T10:00:51;13.85;;;9.52;;
38379;SDS011;38377;47.418;18.882;2023-03-01T10:08:41;15.57;;;9.85;;
38379;SDS011;38377;47.418;18.882;2023-03-01T10:11:30;16.58;;;9.52;;
38379;SDS011;38377;47.418;18.882;2023-03-01T10:19:47;14.40;;;10.30;;
38379;SDS011;38377;47.418;18.882;2023-03-01T10:22:21;16.08;;;9.63;;
38379;SDS011;38377;47.418;18.882;2023-03-01T10:24:49;16.13;;;9.77;;
38379;SDS011;38377;47.418;18.882;2023-03-01T10:27:21;14.32;;;9.70;;
38379;SDS011;38377;47.418;18.882;2023-03-01T10:32:41;18.38;;;9.75;;
38379;SDS011;38377;47.418;18.882;2023-03-01T10:35:18;12.13;;;8.90;;
38379;SDS011;38377;47.418;18.882;2023-03-01T10:37:57;16.13;;;9.85;;
38379;SDS011;38377;47.418;18.882;2023-03-01T10:40:23;16.60;;;10.90;;
38379;SDS011;38377;47.418;18.882;2023-03-01T10:42:48;19.95;;;12.73;;
38379;SDS011;38377;47.418;18.882;2023-03-01T10:50:41;18.05;;;10.95;;
38379;SDS011;38377;47.418;18.882;2023-03-01T10:53:22;17.13;;;10.30;;
38379;SDS011;38377;47.418;18.882;2023-03-01T10:56:17;16.33;;;10.40;;
38379;SDS011;38377;47.418;18.882;2023-03-01T10:59:03;17.65;;;8.85;;
38379;SDS011;38377;47.418;18.882;2023-03-01T11:01:33;15.77;;;10.07;;
38379;SDS011;38377;47.418;18.882;2023-03-01T11:06:41;14.93;;;9.88;;
38379;SDS011;38377;47.418;18.882;2023-03-01T11:09:21;15.10;;;9.65;;
38379;SDS011;38377;47.418;18.882;2023-03-01T11:11:52;17.08;;;10.63;;
38379;SDS011;38377;47.418;18.882;2023-03-01T11:14:38;15.77;;;10.40;;
38379;SDS011;38377;47.418;18.882;2023-03-01T11:17:12;12.50;;;9.02;;
38379;SDS011;38377;47.418;18.882;2023-03-01T11:19:52;16.30;;;9.55;;
38379;SDS011;38377;47.418;18.882;2023-03-01T11:22:47;16.67;;;8.60;;
38379;SDS011;38377;47.418;18.882;2023-03-01T11:25:18;26.23;;;15.45;;
38379;SDS011;38377;47.418;18.882;2023-03-01T11:27:46;14.88;;;10.63;;
38379;SDS011;38377;47.418;18.882;2023-03-01T11:30:15;21.15;;;17.80;;
38379;SDS011;38377;47.418;18.882;2023-03-01T11:32:45;15.35;;;8.50;;
38379;SDS011;38377;47.418;18.882;2023-03-01T11:35:22;15.15;;;11.32;;
38379;SDS011;38377;47.418;18.882;2023-03-01T11:51:53;13.70;;;9.63;;
38379;SDS011;38377;47.418;18.882;2023-03-01T11:55:04;14.43;;;10.18;;
38379;SDS011;38377;47.418;18.882;2023-03-01T12:12:01;12.80;;;8.32;;
38379;SDS011;38377;47.418;18.882;2023-03-01T12:20:36;31.40;;;19.63;;
38379;SDS011;38377;47.418;18.882;2023-03-01T12:23:58;16.30;;;10.00;;
38379;SDS011;38377;47.418;18.882;2023-03-01T12:29:22;14.95;;;9.95;;
38379;SDS011;38377;47.418;18.882;2023-03-01T12:31:53;13.48;;;8.90;;
38379;SDS011;38377;47.418;18.882;2023-03-01T12:34:53;12.45;;;8.93;;
38379;SDS011;38377;47.418;18.882;2023-03-01T12:40:31;16.83;;;8.80;;
38379;SDS011;38377;47.418;18.882;2023-03-01T12:43:08;15.27;;;8.65;;
38379;SDS011;38377;47.418;18.882;2023-03-01T12:46:04;12.65;;;8.13;;
38379;SDS011;38377;47.418;18.882;2023-03-01T12:51:28;14.10;;;7.93;;
38379;SDS011;38377;47.418;18.882;2023-03-01T12:53:58;12.00;;;8.57;;
38379;SDS011;38377;47.418;18.882;2023-03-01T12:56:28;11.18;;;7.75;;
38379;SDS011;38377;47.418;18.882;2023-03-01T12:59:02;12.60;;;7.50;;
38379;SDS011;38377;47.418;18.882;2023-03-01T13:17:58;10.18;;;5.97;;
38379;SDS011;38377;47.418;18.882;2023-03-01T13:20:55;29.90;;;21.45;;
38379;SDS011;38377;47.418;18.882;2023-03-01T13:31:09;12.93;;;8.15;;
38379;SDS011;38377;47.418;18.882;2023-03-01T13:33:59;13.45;;;7.50;;
38379;SDS011;38377;47.418;18.882;2023-03-01T13:36:46;11.07;;;7.88;;
38379;SDS011;38377;47.418;18.882;2023-03-01T13:39:29;14.35;;;7.78;;
38379;SDS011;38377;47.418;18.882;2023-03-01T13:41:59;12.70;;;7.60;;
38379;SDS011;38377;47.418;18.882;2023-03-01T13:44:30;11.25;;;7.10;;
38379;SDS011;38377;47.418;18.882;2023-03-01T13:49:25;10.38;;;6.90;;
38379;SDS011;38377;47.418;18.882;2023-03-01T13:51:54;11.05;;;7.93;;
38379;SDS011;38377;47.418;18.882;2023-03-01T13:54:25;13.07;;;7.72;;
38379;SDS011;38377;47.418;18.882;2023-03-01T13:56:55;12.98;;;7.88;;
38379;SDS011;38377;47.418;18.882;2023-03-01T13:59:25;14.38;;;7.63;;
38379;SDS011;38377;47.418;18.882;2023-03-01T14:01:53;14.30;;;6.75;;
38379;SDS011;38377;47.418;18.882;2023-03-01T14:06:48;11.80;;;7.38;;
38379;SDS011;38377;47.418;18.882;2023-03-01T14:19:39;11.30;;;6.82;;
38379;SDS011;38377;47.418;18.882;2023-03-01T14:22:26;12.38;;;6.72;;
38379;SDS011;38377;47.418;18.882;2023-03-01T14:27:23;13.65;;;8.30;;
38379;SDS011;38377;47.418;18.882;2023-03-01T14:29:59;11.30;;;7.30;;
38379;SDS011;38377;47.418;18.882;2023-03-01T14:32:28;11.13;;;7.13;;
38379;SDS011;38377;47.418;18.882;2023-03-01T14:34:55;11.45;;;7.72;;
38379;SDS011;38377;47.418;18.882;2023-03-01T14:37:29;10.35;;;6.72;;
38379;SDS011;38377;47.418;18.882;2023-03-01T14:39:57;9.40;;;6.35;;
38379;SDS011;38377;47.418;18.882;2023-03-01T14:42:26;10.10;;;6.32;;
38379;SDS011;38377;47.418;18.882;2023-03-01T14:45:01;10.88;;;6.90;;
38379;SDS011;38377;47.418;18.882;2023-03-01T14:47:30;10.75;;;6.45;;
38379;SDS011;38377;47.418;18.882;2023-03-01T14:50:19;9.60;;;6.88;;
38379;SDS011;38377;47.418;18.882;2023-03-01T14:53:02;9.32;;;6.20;;
38379;SDS011;38377;47.418;18.882;2023-03-01T14:55:31;15.45;;;6.93;;
38379;SDS011;38377;47.418;18.882;2023-03-01T14:58:09;12.65;;;6.22;;
38379;SDS011;38377;47.418;18.882;2023-03-01T15:00:38;8.85;;;6.10;;
38379;SDS011;38377;47.418;18.882;2023-03-01T15:03:10;10.52;;;6.63;;
38379;SDS011;38377;47.418;18.882;2023-03-01T15:08:05;10.27;;;6.50;;
38379;SDS011;38377;47.418;18.882;2023-03-01T15:10:33;9.73;;;6.47;;
38379;SDS011;38377;47.418;18.882;2023-03-01T15:13:13;9.70;;;6.43;;
38379;SDS011;38377;47.418;18.882;2023-03-01T15:15:46;8.00;;;5.65;;
38379;SDS011;38377;47.418;18.882;2023-03-01T15:20:47;13.15;;;6.57;;
38379;SDS011;38377;47.418;18.882;2023-03-01T15:23:17;12.60;;;6.28;;
38379;SDS011;38377;47.418;18.882;2023-03-01T15:25:51;20.75;;;13.60;;
38379;SDS011;38377;47.418;18.882;2023-03-01T15:28:22;35.22;;;17.50;;
38379;SDS011;38377;47.418;18.882;2023-03-01T15:30:58;17.70;;;9.73;;
38379;SDS011;38377;47.418;18.882;2023-03-01T15:33:37;12.52;;;6.90;;
38379;SDS011;38377;47.418;18.882;2023-03-01T15:36:29;8.70;;;5.65;;
38379;SDS011;38377;47.418;18.882;2023-03-01T15:38:57;9.20;;;5.90;;
38379;SDS011;38377;47.418;18.882;2023-03-01T15:41:25;12.27;;;6.00;;
38379;SDS011;38377;47.418;18.882;2023-03-01T15:44:16;14.55;;;6.78;;
38379;SDS011;38377;47.418;18.882;2023-03-01T15:46:46;16.35;;;7.88;;
38379;SDS011;38377;47.418;18.882;2023-03-01T15:51:57;16.70;;;7.20;;
38379;SDS011;38377;47.418;18.882;2023-03-01T15:54:23;11.60;;;5.93;;
38379;SDS011;38377;47.418;18.882;2023-03-01T15:56:51;14.13;;;6.68;;
38379;SDS011;38377;47.418;18.882;2023-03-01T15:59:17;12.30;;;6.82;;
38379;SDS011;38377;47.418;18.882;2023-03-01T16:01:44;16.15;;;7.90;;
38379;SDS011;38377;47.418;18.882;2023-03-01T16:04:11;16.85;;;7.75;;
38379;SDS011;38377;47.418;18.882;2023-03-01T16:06:41;14.68;;;7.25;;
38379;SDS011;38377;47.418;18.882;2023-03-01T16:09:07;21.55;;;9.30;;
38379;SDS011;38377;47.418;18.882;2023-03-01T16:11:33;24.90;;;9.02;;
38379;SDS011;38377;47.418;18.882;2023-03-01T16:14:01;28.05;;;9.43;;
38379;SDS011;38377;47.418;18.882;2023-03-01T16:16:27;18.95;;;9.98;;
38379;SDS011;38377;47.418;18.882;2023-03-01T16:18:54;20.80;;;8.95;;
38379;SDS011;38377;47.418;18.882;2023-03-01T16:21:20;15.45;;;8.50;;
38379;SDS011;38377;47.418;18.882;2023-03-01T16:23:50;15.43;;;8.35;;
38379;SDS011;38377;47.418;18.882;2023-03-01T16:26:17;15.18;;;7.65;;
38379;SDS011;38377;47.418;18.882;2023-03-01T16:28:43;15.10;;;7.90;;
38379;SDS011;38377;47.418;18.882;2023-03-01T16:31:10;20.10;;;8.60;;
38379;SDS011;38377;47.418;18.882;2023-03-01T16:33:36;22.50;;;10.48;;
38379;SDS011;38377;47.418;18.882;2023-03-01T16:36:07;24.27;;;9.77;;
38379;SDS011;38377;47.418;18.882;2023-03-01T16:38:34;21.13;;;9.38;;
38379;SDS011;38377;47.418;18.882;2023-03-01T16:41:00;19.25;;;9.63;;
38379;SDS011;38377;47.418;18.882;2023-03-01T16:43:26;21.23;;;10.70;;
38379;SDS011;38377;47.418;18.882;2023-03-01T16:45:52;24.05;;;10.75;;